createdAt,value
2019-05-21T00:00:11.349Z,22.15
2019-05-21T00:02:39.803Z,23.87
2019-05-21T00:05:08.638Z,22.58
2019-05-21T00:07:37.067Z,22.40
2019-05-21T00:10:08.753Z,24.00
2019-05-21T00:12:37.200Z,21.10
2019-05-21T00:15:06.744Z,22.52
2019-05-21T00:17:35.186Z,21.17
2019-05-21T00:20:06.201Z,23.05
2019-05-21T00:22:35.121Z,23.32
2019-05-21T00:25:05.272Z,21.75
2019-05-21T00:27:33.965Z,23.05
2019-05-21T00:30:39.093Z,23.67
2019-05-21T00:33:44.171Z,23.35
2019-05-21T00:36:49.676Z,23.60
2019-05-21T00:39:54.695Z,22.07
2019-05-21T00:42:32.081Z,22.50
2019-05-21T00:45:01.004Z,21.65
2019-05-21T00:47:29.788Z,23.80
2019-05-21T00:49:58.221Z,21.75
2019-05-21T00:52:26.697Z,21.93
2019-05-21T00:54:55.341Z,22.02
2019-05-21T00:57:24.013Z,22.55
2019-05-21T00:59:52.726Z,22.93
2019-05-21T01:02:21.183Z,21.93
2019-05-21T01:05:00.082Z,22.07
2019-05-21T01:07:20.259Z,22.90
2019-05-21T01:09:48.704Z,23.35
2019-05-21T01:12:17.150Z,23.30
2019-05-21T01:14:45.584Z,23.77
2019-05-21T01:17:14.037Z,22.82
2019-05-21T01:19:42.466Z,24.02
2019-05-21T01:22:10.941Z,22.48
2019-05-21T01:24:39.680Z,23.00
2019-05-21T01:27:08.133Z,21.85
2019-05-21T01:29:36.814Z,21.55
2019-05-21T01:32:05.261Z,22.93
2019-05-21T01:34:33.964Z,22.90
2019-05-21T01:37:02.758Z,25.23
2019-05-21T01:39:31.177Z,25.48
2019-05-21T01:41:59.629Z,22.93
2019-05-21T01:44:28.100Z,27.50
2019-05-21T01:46:56.551Z,24.70
2019-05-21T01:49:24.998Z,23.18
2019-05-21T01:51:53.499Z,25.35
2019-05-21T01:54:21.920Z,26.68
2019-05-21T01:56:50.385Z,24.75
2019-05-21T01:59:19.073Z,24.57
2019-05-21T02:01:47.520Z,25.92
2019-05-21T02:04:16.192Z,25.85
2019-05-21T02:06:45.380Z,26.52
2019-05-21T02:09:13.833Z,26.07
2019-05-21T02:11:42.603Z,25.02
2019-05-21T02:14:11.052Z,25.48
2019-05-21T02:16:39.488Z,24.55
2019-05-21T02:19:07.947Z,25.55
2019-05-21T02:21:36.388Z,26.77
2019-05-21T02:24:05.030Z,27.58
2019-05-21T02:26:33.798Z,27.48
2019-05-21T02:29:02.568Z,26.97
2019-05-21T02:31:31.149Z,26.85
2019-05-21T02:33:59.586Z,26.55
2019-05-21T02:36:28.070Z,27.25
2019-05-21T02:38:56.513Z,27.25
2019-05-21T02:41:24.944Z,27.62
2019-05-21T02:43:53.388Z,26.48
2019-05-21T02:46:21.812Z,26.97
2019-05-21T02:48:50.271Z,27.58
2019-05-21T02:51:18.949Z,26.70
2019-05-21T02:53:47.625Z,27.90
2019-05-21T02:56:16.071Z,27.37
2019-05-21T02:58:44.506Z,27.30
2019-05-21T03:01:20.395Z,29.80
2019-05-21T03:03:48.855Z,29.67
2019-05-21T03:06:17.543Z,28.35
2019-05-21T03:08:45.968Z,30.27
2019-05-21T03:11:14.406Z,28.67
2019-05-21T03:13:42.846Z,30.17
2019-05-21T03:16:11.282Z,29.27
2019-05-21T03:18:39.722Z,28.95
2019-05-21T03:21:08.143Z,32.15
2019-05-21T03:23:36.596Z,28.23
2019-05-21T03:26:05.269Z,31.40
2019-05-21T03:28:33.716Z,32.83
2019-05-21T03:31:02.437Z,30.02
2019-05-21T03:33:31.245Z,31.57
2019-05-21T03:35:59.744Z,30.25
2019-05-21T03:38:28.434Z,31.42
2019-05-21T03:40:56.861Z,32.25
2019-05-21T03:43:25.300Z,28.17
2019-05-21T03:45:56.547Z,29.15
2019-05-21T03:48:25.007Z,27.30
2019-05-21T03:50:53.537Z,31.37
2019-05-21T03:53:22.078Z,33.08
2019-05-21T03:55:50.615Z,30.23
2019-05-21T03:58:19.339Z,34.55
2019-05-21T04:00:47.854Z,30.95
2019-05-21T04:03:16.813Z,31.20
2019-05-21T04:05:45.414Z,30.35
2019-05-21T04:08:14.127Z,29.27
2019-05-21T04:10:42.995Z,29.00
2019-05-21T04:13:11.572Z,31.17
2019-05-21T04:15:46.015Z,30.45
2019-05-21T04:18:16.194Z,33.23
2019-05-21T04:20:44.893Z,30.45
2019-05-21T04:23:13.416Z,31.57
2019-05-21T04:25:41.866Z,32.33
2019-05-21T04:28:10.363Z,29.32
2019-05-21T04:30:38.808Z,26.17
2019-05-21T04:33:07.323Z,23.92
2019-05-21T04:35:36.207Z,22.55
2019-05-21T04:38:04.744Z,21.10
2019-05-21T04:40:33.446Z,19.30
2019-05-21T04:43:02.681Z,18.60
2019-05-21T04:45:31.394Z,19.37
2019-05-21T04:47:59.834Z,19.35
2019-05-21T04:50:28.296Z,19.98
2019-05-21T04:52:57.087Z,19.40
2019-05-21T04:55:25.543Z,21.35
2019-05-21T04:57:54.007Z,18.05
2019-05-21T05:00:22.471Z,18.60
2019-05-21T05:02:50.936Z,19.85
2019-05-21T05:05:19.456Z,18.30
2019-05-21T05:07:47.916Z,17.60
2019-05-21T05:10:16.441Z,20.17
2019-05-21T05:12:44.904Z,18.92
2019-05-21T05:15:14.052Z,19.98
2019-05-21T05:17:42.603Z,19.65
2019-05-21T05:20:12.101Z,20.35
2019-05-21T05:22:40.868Z,20.20
2019-05-21T05:25:09.715Z,19.77
2019-05-21T05:27:38.195Z,19.55
2019-05-21T05:30:07.992Z,22.37
2019-05-21T05:32:36.767Z,22.65
2019-05-21T05:35:06.514Z,22.20
2019-05-21T05:37:43.235Z,23.00
2019-05-21T05:40:09.849Z,25.97
2019-05-21T05:42:38.803Z,25.55
2019-05-21T05:45:08.782Z,23.35
2019-05-21T05:47:37.279Z,23.95
2019-05-21T05:50:09.348Z,25.20
2019-05-21T05:52:37.807Z,27.48
2019-05-21T05:55:07.897Z,25.82
2019-05-21T05:57:36.444Z,26.77
2019-05-21T06:00:09.019Z,25.77
2019-05-21T06:02:37.486Z,28.30
2019-05-21T06:05:06.765Z,27.35
2019-05-21T06:07:35.215Z,26.48
2019-05-21T06:10:05.278Z,26.30
2019-05-21T06:12:34.169Z,24.80
2019-05-21T06:15:03.214Z,26.68
2019-05-21T06:17:32.285Z,27.17
2019-05-21T06:20:00.797Z,23.27
2019-05-21T06:22:29.251Z,25.35
2019-05-21T06:24:58.032Z,23.40
2019-05-21T06:27:26.484Z,23.18
2019-05-21T06:29:54.941Z,22.25
2019-05-21T06:32:23.380Z,23.67
2019-05-21T06:34:52.096Z,21.55
2019-05-21T06:37:20.816Z,22.75
2019-05-21T06:39:49.534Z,22.50
2019-05-21T06:42:17.998Z,21.35
2019-05-21T06:44:46.463Z,21.57
2019-05-21T06:47:14.893Z,20.40
2019-05-21T06:49:43.356Z,21.12
2019-05-21T06:52:11.791Z,19.42
2019-05-21T06:54:40.515Z,21.07
2019-05-21T06:57:09.320Z,19.73
2019-05-21T06:59:37.791Z,21.50
2019-05-21T07:02:06.266Z,20.52
2019-05-21T07:04:34.790Z,19.62
2019-05-21T07:07:03.249Z,21.60
2019-05-21T07:09:31.766Z,20.35
2019-05-21T07:12:00.612Z,20.12
2019-05-21T07:14:29.120Z,21.25
2019-05-21T07:16:57.850Z,22.48
2019-05-21T07:19:26.579Z,22.55
2019-05-21T07:22:11.178Z,23.55
2019-05-21T07:24:28.159Z,22.60
2019-05-21T07:26:55.839Z,22.13
2019-05-21T07:29:24.555Z,20.88
2019-05-21T07:31:52.999Z,21.68
2019-05-21T07:34:21.741Z,21.80
2019-05-21T07:36:50.543Z,19.77
2019-05-21T07:39:19.026Z,21.20
2019-05-21T07:41:47.814Z,22.65
2019-05-21T07:44:16.279Z,22.85
2019-05-21T07:46:44.728Z,21.60
2019-05-21T07:49:13.288Z,22.37
2019-05-21T07:51:41.766Z,19.17
2019-05-21T07:54:10.550Z,20.17
2019-05-21T07:56:39.026Z,21.30
2019-05-21T07:59:07.797Z,17.92
2019-05-21T08:01:36.687Z,17.20
2019-05-21T08:04:05.481Z,15.83
2019-05-21T08:06:34.185Z,17.45
2019-05-21T08:09:13.543Z,13.98
2019-05-21T08:11:34.358Z,16.90
2019-05-21T08:14:02.826Z,16.70
2019-05-21T08:16:31.276Z,20.35
2019-05-21T08:18:59.752Z,22.55
2019-05-21T08:21:28.739Z,21.10
2019-05-21T08:23:57.527Z,21.40
2019-05-21T08:26:25.975Z,20.72
2019-05-21T08:28:54.407Z,20.02
2019-05-21T08:31:23.119Z,19.87
2019-05-21T08:33:51.582Z,21.10
2019-05-21T08:36:20.349Z,20.20
2019-05-21T08:38:48.795Z,18.23
2019-05-21T08:41:17.234Z,19.00
2019-05-21T08:43:45.999Z,19.77
2019-05-21T08:46:14.442Z,17.45
2019-05-21T08:48:43.001Z,16.87
2019-05-21T08:51:11.526Z,18.37
2019-05-21T08:53:40.460Z,15.13
2019-05-21T08:56:08.955Z,16.20
2019-05-21T08:58:37.482Z,16.12
2019-05-21T09:01:06.012Z,15.10
2019-05-21T09:03:34.451Z,14.28
2019-05-21T09:06:04.123Z,14.13
2019-05-21T09:08:33.059Z,14.05
2019-05-21T09:11:01.982Z,14.63
2019-05-21T09:13:31.243Z,15.60
2019-05-21T09:15:59.700Z,15.25
2019-05-21T09:18:28.420Z,15.18
2019-05-21T09:20:57.207Z,14.55
2019-05-21T09:23:25.996Z,15.98
2019-05-21T09:25:54.451Z,14.28
2019-05-21T09:28:23.160Z,16.30
2019-05-21T09:30:51.609Z,15.45
2019-05-21T09:33:20.053Z,15.58
2019-05-21T09:35:48.571Z,16.12
2019-05-21T09:38:17.585Z,14.38
2019-05-21T09:40:46.591Z,14.45
2019-05-21T09:43:15.284Z,14.83
2019-05-21T09:45:44.574Z,14.50
2019-05-21T09:48:15.272Z,15.50
2019-05-21T09:50:44.441Z,16.07
2019-05-21T09:53:13.314Z,15.40
2019-05-21T09:55:41.742Z,15.00
2019-05-21T09:58:12.315Z,14.75
2019-05-21T10:00:42.456Z,16.27
2019-05-21T10:03:18.483Z,17.10
2019-05-21T10:05:46.922Z,17.67
2019-05-21T10:08:15.760Z,17.77
2019-05-21T10:10:44.546Z,17.20
2019-05-21T10:13:13.250Z,19.55
2019-05-21T10:15:41.696Z,19.55
2019-05-21T10:18:10.146Z,17.35
2019-05-21T10:20:38.604Z,19.57
2019-05-21T10:23:07.500Z,17.92
2019-05-21T10:25:36.354Z,16.77
2019-05-21T10:28:04.903Z,16.55
2019-05-21T10:30:33.777Z,15.32
2019-05-21T10:33:02.267Z,13.22
2019-05-21T10:35:30.708Z,12.93
2019-05-21T10:37:59.485Z,13.32
2019-05-21T10:40:27.944Z,12.15
2019-05-21T10:42:56.388Z,11.38
2019-05-21T10:45:25.126Z,11.73
2019-05-21T10:47:53.575Z,10.55
2019-05-21T10:50:22.299Z,10.70
2019-05-21T10:52:51.088Z,11.22
2019-05-21T10:55:19.876Z,9.50
2019-05-21T10:57:48.319Z,9.40
2019-05-21T11:00:23.054Z,9.48
2019-05-21T11:02:52.796Z,9.65
2019-05-21T11:05:29.108Z,10.75
2019-05-21T11:08:21.779Z,11.75
2019-05-21T11:10:28.086Z,10.68
2019-05-21T11:12:56.953Z,12.20
2019-05-21T11:15:25.466Z,12.13
2019-05-21T11:18:09.937Z,14.05
2019-05-21T11:20:24.266Z,14.50
2019-05-21T11:22:52.713Z,15.20
2019-05-21T11:25:21.188Z,12.78
2019-05-21T11:27:49.715Z,13.58
2019-05-21T11:30:18.903Z,14.33
2019-05-21T11:32:48.088Z,13.88
2019-05-21T11:35:17.171Z,14.65
2019-05-21T11:37:47.764Z,15.85
2019-05-21T11:40:17.227Z,15.13
2019-05-21T11:42:45.715Z,13.85
2019-05-21T11:45:29.466Z,13.40
2019-05-21T11:47:44.867Z,12.40
2019-05-21T11:50:15.319Z,14.85
2019-05-21T11:52:43.828Z,14.25
2019-05-21T11:55:12.630Z,13.95
2019-05-21T11:57:41.083Z,13.78
2019-05-21T12:00:10.478Z,14.95
2019-05-21T12:02:38.986Z,15.72
2019-05-21T12:05:08.267Z,13.90
2019-05-21T12:07:37.167Z,15.28
2019-05-21T12:10:07.881Z,12.33
2019-05-21T12:12:36.374Z,14.25
2019-05-21T12:15:09.116Z,11.60
2019-05-21T12:20:07.190Z,10.63
2019-05-21T12:22:35.938Z,11.20
2019-05-21T12:25:05.957Z,10.05
2019-05-21T12:27:34.391Z,9.00
2019-05-21T12:30:04.453Z,9.65
2019-05-21T12:32:33.346Z,8.75
2019-05-21T12:35:01.931Z,8.50
2019-05-21T12:37:30.558Z,8.65
2019-05-21T12:39:59.600Z,8.00
2019-05-21T12:42:28.392Z,8.65
2019-05-21T12:44:56.858Z,8.13
2019-05-21T12:47:25.378Z,7.92
2019-05-21T12:49:53.839Z,6.97
2019-05-21T12:52:22.272Z,8.60
2019-05-21T12:54:50.778Z,7.62
2019-05-21T12:57:19.265Z,8.28
2019-05-21T12:59:47.770Z,8.73
2019-05-21T13:02:16.547Z,8.35
2019-05-21T13:04:45.246Z,9.55
2019-05-21T13:07:13.794Z,9.00
2019-05-21T13:09:42.294Z,9.75
2019-05-21T13:12:10.746Z,9.73
2019-05-21T13:14:39.190Z,10.15
2019-05-21T13:17:07.639Z,10.38
2019-05-21T13:19:36.426Z,9.85
2019-05-21T13:22:05.245Z,9.13
2019-05-21T13:24:34.110Z,12.10
2019-05-21T13:27:02.907Z,11.95
2019-05-21T13:29:31.442Z,13.18
2019-05-21T13:31:59.963Z,11.97
2019-05-21T13:34:28.746Z,13.43
2019-05-21T13:36:57.957Z,14.40
2019-05-21T13:39:26.484Z,13.15
2019-05-21T13:41:55.003Z,12.25
2019-05-21T13:44:23.438Z,13.70
2019-05-21T13:46:51.937Z,14.10
2019-05-21T13:49:20.423Z,14.13
2019-05-21T13:51:48.866Z,14.50
2019-05-21T13:54:17.307Z,14.58
2019-05-21T13:56:45.820Z,15.03
2019-05-21T13:59:14.277Z,15.28
2019-05-21T14:01:42.735Z,14.60
2019-05-21T14:04:11.360Z,14.53
2019-05-21T14:06:39.790Z,14.85
2019-05-21T14:09:09.451Z,13.93
2019-05-21T14:11:38.056Z,15.45
2019-05-21T14:14:07.014Z,13.80
2019-05-21T14:16:35.457Z,14.05
2019-05-21T14:19:04.049Z,12.82
2019-05-21T14:21:32.492Z,11.95
2019-05-21T14:24:00.970Z,13.60
2019-05-21T14:26:29.851Z,12.93
2019-05-21T14:28:58.325Z,12.28
2019-05-21T14:31:26.770Z,12.75
2019-05-21T14:33:55.725Z,13.08
2019-05-21T14:36:24.230Z,14.78
2019-05-21T14:38:53.010Z,14.45
2019-05-21T14:41:21.466Z,14.13
2019-05-21T14:43:49.932Z,15.90
2019-05-21T14:46:18.433Z,14.68
2019-05-21T14:48:47.184Z,14.93
2019-05-21T14:51:16.690Z,15.08
2019-05-21T14:53:45.478Z,15.58
2019-05-21T14:56:14.290Z,14.13
2019-05-21T14:58:42.727Z,15.65
2019-05-21T15:01:11.181Z,16.20
2019-05-21T15:03:40.393Z,15.90
2019-05-21T15:06:08.845Z,16.20
2019-05-21T15:08:37.302Z,16.57
2019-05-21T15:11:05.750Z,17.25
2019-05-21T15:13:34.659Z,17.90
2019-05-21T15:16:03.373Z,17.42
2019-05-21T15:18:31.830Z,17.98
2019-05-21T15:21:01.935Z,18.85
2019-05-21T15:23:30.442Z,18.48
2019-05-21T15:25:58.979Z,19.12
2019-05-21T15:28:27.742Z,18.05
2019-05-21T15:30:56.489Z,18.95
2019-05-21T15:33:24.935Z,22.17
2019-05-21T15:35:53.769Z,22.02
2019-05-21T15:38:22.548Z,21.55
2019-05-21T15:41:08.489Z,20.08
2019-05-21T15:43:21.232Z,19.98
2019-05-21T15:45:49.930Z,21.37
2019-05-21T15:48:18.394Z,17.37
2019-05-21T15:50:46.826Z,19.55
2019-05-21T15:53:15.286Z,18.82
2019-05-21T15:55:43.744Z,18.98
2019-05-21T15:58:12.194Z,19.70
2019-05-21T16:00:40.819Z,20.62
2019-05-21T16:03:09.609Z,21.20
2019-05-21T16:05:38.175Z,20.48
2019-05-21T16:08:06.618Z,19.85
2019-05-21T16:10:35.073Z,21.40
2019-05-21T16:13:03.524Z,20.88
2019-05-21T16:15:32.432Z,21.00
2019-05-21T16:18:01.219Z,20.05
2019-05-21T16:20:29.670Z,22.40
2019-05-21T16:22:58.482Z,20.10
2019-05-21T16:25:27.214Z,20.92
2019-05-21T16:27:55.724Z,17.62
2019-05-21T16:30:24.246Z,18.52
2019-05-21T16:32:52.686Z,19.23
2019-05-21T16:35:21.410Z,19.02
2019-05-21T16:37:49.857Z,18.35
2019-05-21T16:40:19.020Z,19.40
2019-05-21T16:42:47.873Z,18.45
2019-05-21T16:45:17.795Z,20.05
2019-05-21T16:47:46.944Z,21.97
2019-05-21T16:50:16.280Z,24.05
2019-05-21T16:52:44.981Z,26.40
2019-05-21T16:55:13.508Z,28.98
2019-05-21T16:57:42.223Z,28.73
2019-05-21T17:00:13.787Z,28.77
2019-05-21T17:02:42.800Z,30.43
2019-05-21T17:05:11.622Z,27.65
2019-05-21T17:07:40.372Z,29.87
2019-05-21T17:10:09.770Z,29.12
2019-05-21T17:12:38.288Z,29.70
2019-05-21T17:15:08.239Z,28.90
2019-05-21T17:17:36.957Z,30.88
2019-05-21T17:20:09.500Z,29.30
2019-05-21T17:22:38.905Z,30.05
2019-05-21T17:25:08.280Z,29.07
2019-05-21T17:27:37.131Z,29.75
2019-05-21T17:30:10.537Z,32.85
2019-05-21T17:32:39.309Z,31.20
2019-05-21T17:35:09.756Z,28.87
2019-05-21T17:37:38.200Z,29.20
2019-05-21T17:40:07.852Z,28.05
2019-05-21T17:42:36.607Z,28.05
2019-05-21T17:45:08.122Z,28.92
2019-05-21T17:47:36.586Z,27.48
2019-05-21T17:50:07.892Z,27.45
2019-05-21T17:52:36.445Z,28.02
2019-05-21T17:55:07.206Z,27.22
2019-05-21T17:57:35.737Z,28.55
2019-05-21T18:00:07.477Z,29.05
2019-05-21T18:02:36.501Z,29.18
2019-05-21T18:05:07.844Z,28.25
2019-05-21T18:07:37.598Z,28.80
2019-05-21T18:10:08.034Z,28.10
2019-05-21T18:12:36.935Z,28.77
2019-05-21T18:15:10.278Z,28.32
2019-05-21T18:17:39.628Z,28.17
2019-05-21T18:20:09.339Z,28.55
2019-05-21T18:22:39.761Z,29.70
2019-05-21T18:25:09.483Z,29.77
2019-05-21T18:27:37.976Z,30.92
2019-05-21T18:30:08.866Z,36.73
2019-05-21T18:32:37.686Z,36.48
2019-05-21T18:35:07.796Z,37.80
2019-05-21T18:37:37.731Z,41.48
2019-05-21T18:40:10.316Z,38.40
2019-05-21T18:42:38.755Z,40.73
2019-05-21T18:45:08.358Z,39.30
2019-05-21T18:47:37.170Z,41.73
2019-05-21T18:50:09.487Z,38.67
2019-05-21T18:52:38.324Z,42.27
2019-05-21T18:55:07.944Z,40.92
2019-05-21T18:57:36.450Z,39.88
2019-05-21T19:00:06.934Z,39.48
2019-05-21T19:02:35.543Z,39.30
2019-05-21T19:05:05.243Z,39.27
2019-05-21T19:07:34.035Z,39.73
2019-05-21T19:10:02.555Z,40.33
2019-05-21T19:12:38.024Z,39.10
2019-05-21T19:15:01.801Z,42.10
2019-05-21T19:17:35.610Z,40.73
2019-05-21T19:20:01.494Z,40.43
2019-05-21T19:22:30.178Z,40.48
2019-05-21T19:24:59.028Z,38.55
2019-05-21T19:27:27.534Z,39.92
2019-05-21T19:29:55.995Z,41.70
2019-05-21T19:32:24.470Z,39.23
2019-05-21T19:34:52.998Z,38.92
2019-05-21T19:37:21.724Z,39.50
2019-05-21T19:39:50.335Z,37.90
2019-05-21T19:42:19.425Z,36.60
2019-05-21T19:44:48.206Z,34.48
2019-05-21T19:47:16.646Z,33.98
2019-05-21T19:49:45.392Z,35.40
2019-05-21T19:52:14.163Z,30.57
2019-05-21T19:54:42.950Z,32.00
2019-05-21T19:57:12.355Z,30.60
2019-05-21T19:59:40.875Z,32.63
2019-05-21T20:02:11.046Z,30.10
2019-05-21T20:04:40.563Z,28.60
2019-05-21T20:07:11.433Z,26.40
2019-05-21T20:09:39.944Z,25.90
2019-05-21T20:12:09.747Z,27.85
2019-05-21T20:14:38.435Z,25.80
2019-05-21T20:17:08.589Z,25.92
2019-05-21T20:19:37.152Z,29.30
2019-05-21T20:22:06.854Z,30.57
2019-05-21T20:24:35.955Z,32.75
2019-05-21T20:27:05.528Z,38.78
2019-05-21T20:29:34.490Z,37.40
2019-05-21T20:32:03.202Z,38.17
2019-05-21T20:34:32.285Z,38.67
2019-05-21T20:37:00.866Z,38.60
2019-05-21T20:39:30.826Z,37.80
2019-05-21T20:41:59.649Z,37.67
2019-05-21T20:44:28.479Z,36.63
2019-05-21T20:46:57.665Z,37.83
2019-05-21T20:49:26.763Z,36.88
2019-05-21T20:51:56.544Z,36.88
2019-05-21T20:54:26.212Z,36.88
2019-05-21T20:56:55.362Z,36.85
2019-05-21T20:59:24.171Z,35.65
2019-05-21T21:01:52.819Z,37.65
2019-05-21T21:04:22.055Z,38.63
2019-05-21T21:06:50.575Z,38.40
2019-05-21T21:09:19.266Z,38.15
2019-05-21T21:11:47.753Z,37.67
2019-05-21T21:14:18.574Z,36.65
2019-05-21T21:16:47.814Z,38.13
2019-05-21T21:19:16.516Z,40.83
2019-05-21T21:21:45.226Z,39.05
2019-05-21T21:24:13.688Z,34.43
2019-05-21T21:26:42.346Z,41.70
2019-05-21T21:29:10.888Z,40.75
2019-05-21T21:31:39.424Z,41.35
2019-05-21T21:34:08.066Z,44.63
2019-05-21T21:36:37.409Z,42.98
2019-05-21T21:39:08.659Z,43.08
2019-05-21T21:41:38.941Z,43.75
2019-05-21T21:44:08.091Z,41.95
2019-05-21T21:46:37.603Z,38.38
2019-05-21T21:49:06.387Z,41.30
2019-05-21T21:51:35.186Z,40.58
2019-05-21T21:54:04.659Z,37.98
2019-05-21T21:56:33.112Z,41.45
2019-05-21T21:59:01.602Z,44.35
2019-05-21T22:01:51.870Z,43.05
2019-05-21T22:04:23.731Z,41.42
2019-05-21T22:06:53.388Z,41.42
2019-05-21T22:09:23.850Z,39.35
2019-05-21T22:11:53.472Z,40.52
2019-05-21T22:14:22.535Z,36.17
2019-05-21T22:16:52.018Z,37.65
2019-05-21T22:19:21.454Z,40.40
2019-05-21T22:21:51.643Z,43.45
2019-05-21T22:24:20.166Z,41.55
2019-05-21T22:26:49.460Z,39.03
2019-05-21T22:29:18.072Z,41.60
2019-05-21T22:31:47.103Z,38.90
2019-05-21T22:34:16.055Z,40.15
2019-05-21T22:36:44.500Z,42.50
2019-05-21T22:39:18.095Z,45.10
2019-05-21T22:41:46.979Z,44.38
2019-05-21T22:44:15.751Z,43.08
2019-05-21T22:46:45.361Z,42.85
2019-05-21T22:49:13.805Z,46.98
2019-05-21T22:51:42.262Z,46.77
2019-05-21T22:54:10.732Z,49.20
2019-05-21T22:56:39.223Z,46.90
2019-05-21T22:59:07.738Z,45.85
2019-05-21T23:01:36.729Z,44.00
2019-05-21T23:04:05.930Z,46.63
2019-05-21T23:06:34.391Z,46.45
2019-05-21T23:09:03.099Z,45.15
2019-05-21T23:11:31.722Z,44.95
2019-05-21T23:14:00.169Z,45.12
2019-05-21T23:16:28.823Z,40.90
2019-05-21T23:18:58.068Z,53.13
2019-05-21T23:21:26.610Z,50.28
2019-05-21T23:23:56.055Z,50.17
2019-05-21T23:26:26.376Z,50.80
2019-05-21T23:28:54.828Z,51.33
2019-05-21T23:31:23.569Z,48.95
2019-05-21T23:33:52.224Z,48.58
2019-05-21T23:36:21.314Z,48.00
2019-05-21T23:38:51.302Z,47.85
2019-05-21T23:41:21.692Z,49.10
2019-05-21T23:43:50.199Z,46.13
2019-05-21T23:46:19.499Z,48.87
2019-05-21T23:48:48.585Z,53.13
2019-05-21T23:51:17.303Z,52.88
2019-05-21T23:53:45.737Z,53.45
2019-05-21T23:56:14.638Z,45.03
2019-05-21T23:58:43.417Z,51.00
